createdAt,value
2023-02-03T00:05:02.216Z,99.90
2023-02-03T00:25:33.226Z,99.90
2023-02-03T00:28:43.078Z,99.90
2023-02-03T00:31:49.612Z,99.90
2023-02-03T01:05:14.378Z,95.90
2023-02-03T01:13:47.156Z,94.60
2023-02-03T01:24:21.558Z,94.20
2023-02-03T01:27:26.914Z,94.00
2023-02-03T01:30:11.175Z,94.20
2023-02-03T01:32:41.337Z,94.00
2023-02-03T01:37:54.015Z,93.90
2023-02-03T01:40:36.127Z,94.10
2023-02-03T01:46:49.355Z,93.80
2023-02-03T01:52:59.749Z,93.80
2023-02-03T01:55:49.939Z,93.50
2023-02-03T01:59:19.716Z,93.50
2023-02-03T02:38:08.932Z,94.60
2023-02-03T02:41:26.972Z,94.70
2023-02-03T02:47:39.694Z,94.70
2023-02-03T03:07:24.339Z,94.00
2023-02-03T03:10:07.952Z,94.00
2023-02-03T03:12:55.906Z,93.90
2023-02-03T03:22:41.627Z,94.00
2023-02-03T03:25:47.021Z,94.00
2023-02-03T03:28:37.211Z,93.80
2023-02-03T03:31:13.749Z,93.60
2023-02-03T03:37:36.236Z,93.50
2023-02-03T03:47:05.019Z,93.00
2023-02-03T03:50:20.041Z,92.70
2023-02-03T04:11:16.520Z,92.80
2023-02-03T04:14:19.818Z,93.00
2023-02-03T04:31:01.460Z,93.20
2023-02-03T04:33:28.575Z,93.30
2023-02-03T04:36:00.269Z,93.00
2023-02-03T04:52:12.367Z,93.00
2023-02-03T05:02:53.106Z,92.90
2023-02-03T07:06:20.976Z,93.50
2023-02-03T07:08:48.238Z,93.40
2023-02-03T07:11:15.485Z,93.20
2023-02-03T07:13:42.519Z,93.20
2023-02-03T07:16:09.658Z,93.10
2023-02-03T07:18:46.999Z,93.50
2023-02-03T07:21:16.377Z,94.00
2023-02-03T07:23:43.565Z,94.20
2023-02-03T07:26:11.321Z,94.00
2023-02-03T07:28:38.344Z,94.20
2023-02-03T07:31:05.487Z,94.40
2023-02-03T07:33:32.648Z,94.60
2023-02-03T07:36:00.485Z,95.00
2023-02-03T07:38:28.498Z,95.10
2023-02-03T07:40:56.254Z,95.10
2023-02-03T07:43:24.324Z,95.40
2023-02-03T07:50:05.769Z,95.20
2023-02-03T07:52:33.178Z,95.50
2023-02-03T08:02:02.825Z,95.90
2023-02-03T08:15:25.096Z,95.70
2023-02-03T08:27:42.389Z,94.60
2023-02-03T08:30:30.627Z,94.40
2023-02-03T08:36:52.761Z,94.10
2023-02-03T08:50:00.729Z,95.10
2023-02-03T09:03:29.092Z,95.40
2023-02-03T09:09:37.346Z,95.70
2023-02-03T09:12:13.289Z,97.00
2023-02-03T09:21:06.291Z,99.90
2023-02-03T09:23:34.615Z,99.90
2023-02-03T09:26:18.848Z,99.90
2023-02-03T09:28:45.961Z,99.90
2023-02-03T09:31:19.887Z,99.90
2023-02-03T09:33:47.087Z,99.90
2023-02-03T09:36:15.364Z,99.90
2023-02-03T09:38:42.519Z,99.90
2023-02-03T09:41:56.212Z,99.90
2023-02-03T09:44:29.481Z,99.90
2023-02-03T09:47:22.708Z,99.90
2023-02-03T09:50:00.352Z,99.90
2023-02-03T09:52:44.290Z,99.90
2023-02-03T09:55:39.672Z,99.90
2023-02-03T09:58:18.464Z,99.90
2023-02-03T10:00:58.926Z,99.90
2023-02-03T10:03:37.904Z,99.90
2023-02-03T10:06:14.032Z,99.90
2023-02-03T10:08:47.145Z,99.90
2023-02-03T10:11:26.707Z,99.90
2023-02-03T10:14:42.855Z,99.90
2023-02-03T10:17:33.987Z,99.90
2023-02-03T10:20:09.991Z,99.90
2023-02-03T10:23:01.610Z,99.90
2023-02-03T10:25:34.495Z,99.90
2023-02-03T10:28:05.217Z,99.90
2023-02-03T10:30:45.984Z,99.90
2023-02-03T10:33:17.679Z,99.90
2023-02-03T10:35:47.615Z,99.90
2023-02-03T10:38:36.448Z,99.90
2023-02-03T10:41:04.600Z,99.90
2023-02-03T10:43:48.122Z,99.90
2023-02-03T10:46:36.086Z,99.90
2023-02-03T10:49:03.223Z,99.90
2023-02-03T10:51:37.477Z,99.90
2023-02-03T10:54:04.629Z,99.90
2023-02-03T10:56:40.371Z,99.90
2023-02-03T10:59:15.945Z,99.90
2023-02-03T11:18:39.299Z,99.90
2023-02-03T12:07:25.291Z,99.90
2023-02-03T12:26:59.231Z,99.90
2023-02-03T12:29:40.597Z,99.90
2023-02-03T12:32:35.172Z,99.90
2023-02-03T12:39:04.931Z,99.90
2023-02-03T12:41:40.983Z,99.90
2023-02-03T12:44:29.086Z,99.90
2023-02-03T12:47:16.506Z,99.90
2023-02-03T12:49:52.982Z,99.90
2023-02-03T12:52:40.977Z,99.90
2023-02-03T12:55:37.618Z,99.90
2023-02-03T12:58:28.688Z,99.90
2023-02-03T13:01:11.195Z,99.90
2023-02-03T13:04:07.045Z,99.90
2023-02-03T13:06:48.489Z,99.90
2023-02-03T13:09:49.451Z,99.90
2023-02-03T13:12:51.320Z,99.90
2023-02-03T13:15:23.522Z,99.90
2023-02-03T13:18:15.787Z,99.90
2023-02-03T13:20:43.284Z,99.90
2023-02-03T13:23:17.148Z,99.90
2023-02-03T13:26:34.525Z,99.90
2023-02-03T13:29:31.070Z,99.90
2023-02-03T13:32:29.885Z,99.90
2023-02-03T13:35:21.677Z,99.90
2023-02-03T13:38:31.168Z,99.90
2023-02-03T13:41:16.252Z,99.90
2023-02-03T13:44:04.165Z,99.90
2023-02-03T13:46:34.478Z,99.90
2023-02-03T13:49:05.116Z,99.90
2023-02-03T13:51:36.092Z,99.90
2023-02-03T13:54:26.272Z,99.90
2023-02-03T13:57:24.687Z,99.90
2023-02-03T13:59:52.361Z,99.90
2023-02-03T14:02:19.538Z,99.90
2023-02-03T14:04:46.948Z,99.90
2023-02-03T14:10:51.181Z,99.90
2023-02-03T14:13:28.637Z,99.90
2023-02-03T14:19:37.192Z,99.90
2023-02-03T14:22:18.080Z,99.90
2023-02-03T14:25:13.974Z,99.90
2023-02-03T14:27:41.825Z,99.90
2023-02-03T14:30:09.203Z,99.90
2023-02-03T14:32:58.055Z,99.90
2023-02-03T14:35:40.684Z,99.90
2023-02-03T14:41:04.642Z,99.90
2023-02-03T14:43:54.981Z,99.90
2023-02-03T14:46:34.198Z,99.90
2023-02-03T14:49:22.576Z,99.90
2023-02-03T14:52:10.861Z,99.90
2023-02-03T14:54:59.201Z,99.90
2023-02-03T14:57:50.189Z,99.90
2023-02-03T15:00:20.471Z,99.90
2023-02-03T15:03:14.172Z,99.90
2023-02-03T15:06:03.387Z,99.90
2023-02-03T15:08:42.131Z,99.90
2023-02-03T15:11:29.897Z,99.90
2023-02-03T15:14:18.231Z,99.90
2023-02-03T15:16:48.864Z,99.90
2023-02-03T15:19:22.364Z,99.90
2023-02-03T15:21:49.415Z,99.90
2023-02-03T15:24:21.437Z,99.90
2023-02-03T15:26:56.383Z,99.90
2023-02-03T15:29:28.737Z,99.90
2023-02-03T15:32:21.803Z,99.90
2023-02-03T15:34:50.347Z,99.90
2023-02-03T15:37:27.587Z,99.90
2023-02-03T15:40:00.897Z,99.90
2023-02-03T15:42:32.399Z,99.90
2023-02-03T15:45:22.747Z,99.90
2023-02-03T15:47:57.785Z,99.90
2023-02-03T15:50:51.320Z,99.90
2023-02-03T15:53:40.981Z,99.90
2023-02-03T15:56:37.979Z,99.90
2023-02-03T15:59:06.604Z,99.90
2023-02-03T16:01:33.917Z,99.90
2023-02-03T16:04:01.284Z,99.90
2023-02-03T16:06:30.735Z,99.90
2023-02-03T16:08:59.765Z,99.90
2023-02-03T19:59:48.007Z,99.90
2023-02-03T20:09:16.741Z,99.90
2023-02-03T20:12:41.531Z,99.90
2023-02-03T20:15:36.111Z,99.90
2023-02-03T20:21:30.323Z,99.90
2023-02-03T20:24:05.912Z,99.90
2023-02-03T20:26:39.394Z,99.90
2023-02-03T20:29:17.641Z,99.90
2023-02-03T20:31:52.982Z,99.90
2023-02-03T20:34:35.834Z,99.90
2023-02-03T20:37:07.358Z,99.90
2023-02-03T20:39:41.737Z,99.90
2023-02-03T20:42:31.135Z,99.90
2023-02-03T20:45:22.047Z,99.90
2023-02-03T20:47:54.414Z,99.90
2023-02-03T20:50:37.278Z,99.90
2023-02-03T20:53:43.050Z,99.90
2023-02-03T20:56:23.882Z,99.90
2023-02-03T21:02:13.494Z,99.90
2023-02-03T21:05:26.859Z,99.90
2023-02-03T21:08:16.678Z,99.90
2023-02-03T21:11:05.105Z,99.90
2023-02-03T21:13:40.851Z,99.90
2023-02-03T21:16:50.411Z,99.90
2023-02-03T21:23:22.648Z,99.90
2023-02-03T21:29:01.938Z,99.90
2023-02-03T21:35:28.551Z,99.90
2023-02-03T21:38:34.697Z,99.90
2023-02-03T21:48:34.943Z,99.90
2023-02-03T22:00:59.144Z,99.90
2023-02-03T22:03:53.723Z,99.90
2023-02-03T22:06:57.808Z,99.90
2023-02-03T22:12:44.259Z,99.90
2023-02-03T22:18:28.461Z,99.90
2023-02-03T22:21:39.927Z,99.90
2023-02-03T22:24:34.914Z,99.90
2023-02-03T22:27:05.188Z,99.90
2023-02-03T22:29:33.867Z,99.90
2023-02-03T22:32:35.428Z,99.90
2023-02-03T22:35:35.109Z,99.90
2023-02-03T22:40:56.483Z,99.90
2023-02-03T22:43:51.886Z,99.90
2023-02-03T22:46:23.688Z,99.90
2023-02-03T22:49:16.212Z,99.90
2023-02-03T22:52:05.313Z,99.90
2023-02-03T23:08:20.876Z,99.90
2023-02-03T23:11:23.219Z,99.90
2023-02-03T23:14:43.709Z,99.90
2023-02-03T23:40:17.814Z,99.90
2023-02-03T23:42:57.536Z,99.90
2023-02-03T23:45:31.849Z,99.90
2023-02-03T23:48:21.677Z,99.90
2023-02-03T23:52:23.420Z,99.90
2023-02-03T23:58:24.487Z,99.90
